sensor_id;sensor_type;location;lat;lon;timestamp;pressure;altitude;pressure_sealevel;temperature;humidity
10978;BME280;5542;48.272;10.794;2024-02-14T00:01:17;96145.97;;;2.38;76.42
10978;BME280;5542;48.272;10.794;2024-02-14T00:03:43;96146.28;;;2.35;76.47
10978;BME280;5542;48.272;10.794;2024-02-14T00:06:10;96143.88;;;2.34;76.76
10978;BME280;5542;48.272;10.794;2024-02-14T00:08:38;96145.47;;;2.35;76.70
10978;BME280;5542;48.272;10.794;2024-02-14T00:11:06;96144.03;;;2.32;76.84
10978;BME280;5542;48.272;10.794;2024-02-14T00:13:33;96141.41;;;2.32;77.09
10978;BME280;5542;48.272;10.794;2024-02-14T00:16:00;96143.06;;;2.33;77.22
10978;BME280;5542;48.272;10.794;2024-02-14T00:18:27;96145.47;;;2.35;77.45
10978;BME280;5542;48.272;10.794;2024-02-14T00:20:54;96143.88;;;2.34;77.85
10978;BME280;5542;48.272;10.794;2024-02-14T00:23:21;96132.34;;;2.36;78.07
10978;BME280;5542;48.272;10.794;2024-02-14T00:25:47;96145.47;;;2.35;78.25
10978;BME280;5542;48.272;10.794;2024-02-14T00:28:15;96137.53;;;2.36;78.64
10978;BME280;5542;48.272;10.794;2024-02-14T00:30:43;96130.72;;;2.35;78.73
10978;BME280;5542;48.272;10.794;2024-02-14T00:33:09;96134.09;;;2.44;79.13
10978;BME280;5542;48.272;10.794;2024-02-14T00:35:36;96141.91;;;2.36;79.71
10978;BME280;5542;48.272;10.794;2024-02-14T00:38:03;96134.28;;;2.34;79.75
10978;BME280;5542;48.272;10.794;2024-02-14T00:40:29;96142.09;;;2.26;80.49
10978;BME280;5542;48.272;10.794;2024-02-14T00:42:57;96132.06;;;2.15;81.24
10978;BME280;5542;48.272;10.794;2024-02-14T00:45:25;96134.19;;;2.19;81.20
10978;BME280;5542;48.272;10.794;2024-02-14T00:47:52;96142.22;;;2.33;81.12
10978;BME280;5542;48.272;10.794;2024-02-14T00:50:18;96140.63;;;2.31;81.11
10978;BME280;5542;48.272;10.794;2024-02-14T00:52:45;96142.56;;;2.29;81.80
10978;BME280;5542;48.272;10.794;2024-02-14T00:55:12;96142.72;;;2.36;81.40
10978;BME280;5542;48.272;10.794;2024-02-14T00:57:38;96144.31;;;2.37;81.64
10978;BME280;5542;48.272;10.794;2024-02-14T01:00:06;96149.88;;;2.34;82.19
10978;BME280;5542;48.272;10.794;2024-02-14T01:02:35;96147.38;;;2.49;81.17
10978;BME280;5542;48.272;10.794;2024-02-14T01:05:02;96141.59;;;2.39;81.71
10978;BME280;5542;48.272;10.794;2024-02-14T01:07:29;96148.38;;;2.40;81.48
10978;BME280;5542;48.272;10.794;2024-02-14T01:09:56;96155.53;;;2.38;81.46
10978;BME280;5542;48.272;10.794;2024-02-14T01:12:23;96157.97;;;2.39;81.81
10978;BME280;5542;48.272;10.794;2024-02-14T01:14:50;96154.41;;;2.32;81.62
10978;BME280;5542;48.272;10.794;2024-02-14T01:17:16;96150.53;;;2.28;81.82
10978;BME280;5542;48.272;10.794;2024-02-14T01:19:44;96166.63;;;2.23;82.05
10978;BME280;5542;48.272;10.794;2024-02-14T01:22:11;96163.97;;;2.40;81.06
10978;BME280;5542;48.272;10.794;2024-02-14T01:24:41;96169.97;;;2.40;80.86
10978;BME280;5542;48.272;10.794;2024-02-14T01:27:08;96165.94;;;2.38;81.05
10978;BME280;5542;48.272;10.794;2024-02-14T01:29:34;96160.06;;;2.36;81.18
10978;BME280;5542;48.272;10.794;2024-02-14T01:32:01;96167.56;;;2.22;81.50
10978;BME280;5542;48.272;10.794;2024-02-14T01:34:29;96170.03;;;2.16;82.28
10978;BME280;5542;48.272;10.794;2024-02-14T01:36:57;96161.44;;;2.15;82.39
10978;BME280;5542;48.272;10.794;2024-02-14T01:39:24;96171.81;;;2.15;82.55
10978;BME280;5542;48.272;10.794;2024-02-14T01:41:51;96170.19;;;2.14;81.85
10978;BME280;5542;48.272;10.794;2024-02-14T01:44:18;96172.31;;;2.11;82.03
10978;BME280;5542;48.272;10.794;2024-02-14T01:46:46;96169.38;;;2.05;82.39
10978;BME280;5542;48.272;10.794;2024-02-14T01:49:12;96167.25;;;2.17;82.31
10978;BME280;5542;48.272;10.794;2024-02-14T01:51:43;96163.34;;;2.13;82.46
10978;BME280;5542;48.272;10.794;2024-02-14T01:54:13;96158.34;;;2.12;82.60
10978;BME280;5542;48.272;10.794;2024-02-14T01:56:40;96157.22;;;2.14;82.35
10978;BME280;5542;48.272;10.794;2024-02-14T01:59:09;96162.06;;;2.17;82.74
10978;BME280;5542;48.272;10.794;2024-02-14T02:01:36;96159.47;;;2.17;82.89
10978;BME280;5542;48.272;10.794;2024-02-14T02:04:03;96158.53;;;2.10;83.21
10978;BME280;5542;48.272;10.794;2024-02-14T02:06:30;96158.53;;;2.10;83.31
10978;BME280;5542;48.272;10.794;2024-02-14T02:08:57;96158.03;;;2.15;82.34
10978;BME280;5542;48.272;10.794;2024-02-14T02:11:25;96156.25;;;2.07;82.56
10978;BME280;5542;48.272;10.794;2024-02-14T02:13:52;96152.16;;;2.13;82.58
10978;BME280;5542;48.272;10.794;2024-02-14T02:16:19;96150.09;;;2.00;82.91
10978;BME280;5542;48.272;10.794;2024-02-14T02:18:47;96148.16;;;1.94;83.51
10978;BME280;5542;48.272;10.794;2024-02-14T02:21:13;96150.78;;;1.86;84.26
10978;BME280;5542;48.272;10.794;2024-02-14T02:23:41;96140.69;;;1.99;83.82
10978;BME280;5542;48.272;10.794;2024-02-14T02:26:10;96141.66;;;1.98;83.53
10978;BME280;5542;48.272;10.794;2024-02-14T02:28:37;96143.94;;;1.93;83.65
10978;BME280;5542;48.272;10.794;2024-02-14T02:31:04;96149.63;;;1.96;83.92
10978;BME280;5542;48.272;10.794;2024-02-14T02:33:32;96143.94;;;1.93;83.73
10978;BME280;5542;48.272;10.794;2024-02-14T02:35:59;96144.75;;;1.93;83.78
10978;BME280;5542;48.272;10.794;2024-02-14T02:38:25;96141.00;;;2.04;83.24
10978;BME280;5542;48.272;10.794;2024-02-14T02:40:53;96137.78;;;1.94;83.74
10978;BME280;5542;48.272;10.794;2024-02-14T02:43:20;96135.84;;;1.88;83.96
10978;BME280;5542;48.272;10.794;2024-02-14T02:45:47;96134.84;;;1.89;84.53
10978;BME280;5542;48.272;10.794;2024-02-14T02:48:13;96141.03;;;1.79;84.11
10978;BME280;5542;48.272;10.794;2024-02-14T02:50:40;96143.66;;;1.71;84.91
10978;BME280;5542;48.272;10.794;2024-02-14T02:53:06;96144.91;;;1.84;84.46
10978;BME280;5542;48.272;10.794;2024-02-14T02:55:33;96147.34;;;1.93;83.70
10978;BME280;5542;48.272;10.794;2024-02-14T02:58:04;96142.00;;;1.87;84.32
10978;BME280;5542;48.272;10.794;2024-02-14T03:00:30;96148.63;;;1.89;84.55
10978;BME280;5542;48.272;10.794;2024-02-14T03:02:57;96145.72;;;1.92;84.48
10978;BME280;5542;48.272;10.794;2024-02-14T03:05:23;96142.81;;;1.87;84.64
10978;BME280;5542;48.272;10.794;2024-02-14T03:07:51;96146.03;;;1.89;84.93
10978;BME280;5542;48.272;10.794;2024-02-14T03:10:18;96141.50;;;1.99;84.63
10978;BME280;5542;48.272;10.794;2024-02-14T03:12:46;96146.53;;;1.93;84.30
10978;BME280;5542;48.272;10.794;2024-02-14T03:15:15;96141.34;;;1.85;84.74
10978;BME280;5542;48.272;10.794;2024-02-14T03:17:42;96141.16;;;1.94;84.26
10978;BME280;5542;48.272;10.794;2024-02-14T03:20:09;96130.34;;;1.91;84.58
10978;BME280;5542;48.272;10.794;2024-02-14T03:22:38;96126.75;;;2.00;83.55
10978;BME280;5542;48.272;10.794;2024-02-14T03:25:08;96130.47;;;2.05;83.32
10978;BME280;5542;48.272;10.794;2024-02-14T03:27:34;96131.94;;;2.00;83.44
10978;BME280;5542;48.272;10.794;2024-02-14T03:30:02;96124.78;;;2.02;83.00
10978;BME280;5542;48.272;10.794;2024-02-14T03:32:30;96130.00;;;1.94;83.58
10978;BME280;5542;48.272;10.794;2024-02-14T03:34:57;96135.84;;;1.96;83.81
10978;BME280;5542;48.272;10.794;2024-02-14T03:37:23;96134.19;;;2.03;83.21
10978;BME280;5542;48.272;10.794;2024-02-14T03:39:50;96137.44;;;2.05;83.15
10978;BME280;5542;48.272;10.794;2024-02-14T03:42:17;96134.19;;;2.03;83.38
10978;BME280;5542;48.272;10.794;2024-02-14T03:44:45;96137.28;;;2.07;83.26
10978;BME280;5542;48.272;10.794;2024-02-14T03:47:12;96145.22;;;2.05;83.55
10978;BME280;5542;48.272;10.794;2024-02-14T03:49:40;96139.53;;;2.10;83.11
10978;BME280;5542;48.272;10.794;2024-02-14T03:52:07;96134.50;;;2.08;83.37
10978;BME280;5542;48.272;10.794;2024-02-14T03:54:35;96129.00;;;2.11;83.12
10978;BME280;5542;48.272;10.794;2024-02-14T03:57:01;96132.25;;;2.05;83.20
10978;BME280;5542;48.272;10.794;2024-02-14T03:59:29;96133.69;;;2.08;83.56
10978;BME280;5542;48.272;10.794;2024-02-14T04:01:56;96137.75;;;2.10;83.20
10978;BME280;5542;48.272;10.794;2024-02-14T04:04:23;96137.75;;;2.10;83.17
10978;BME280;5542;48.272;10.794;2024-02-14T04:06:51;96139.38;;;2.11;82.87
10978;BME280;5542;48.272;10.794;2024-02-14T04:09:18;96135.13;;;2.18;83.47
10978;BME280;5542;48.272;10.794;2024-02-14T04:11:44;96140.19;;;2.12;83.15
10978;BME280;5542;48.272;10.794;2024-02-14T04:14:11;96141.97;;;2.19;82.70
10978;BME280;5542;48.272;10.794;2024-02-14T04:16:37;96147.78;;;2.13;83.25
10978;BME280;5542;48.272;10.794;2024-02-14T04:19:04;96147.47;;;2.16;82.91
10978;BME280;5542;48.272;10.794;2024-02-14T04:21:31;96153.16;;;2.12;83.10
10978;BME280;5542;48.272;10.794;2024-02-14T04:23:59;96146.34;;;2.19;82.93
10978;BME280;5542;48.272;10.794;2024-02-14T04:26:26;96141.47;;;2.16;82.72
10978;BME280;5542;48.272;10.794;2024-02-14T04:28:52;96141.97;;;2.19;82.71
10978;BME280;5542;48.272;10.794;2024-02-14T04:31:19;96134.81;;;2.13;83.00
10978;BME280;5542;48.272;10.794;2024-02-14T04:33:46;96138.38;;;2.12;83.14
10978;BME280;5542;48.272;10.794;2024-02-14T04:36:17;96142.16;;;2.10;83.07
10978;BME280;5542;48.272;10.794;2024-02-14T04:38:43;96142.94;;;2.10;83.04
10978;BME280;5542;48.272;10.794;2024-02-14T04:41:11;96157.03;;;2.24;82.61
10978;BME280;5542;48.272;10.794;2024-02-14T04:43:39;96149.88;;;2.26;82.34
10978;BME280;5542;48.272;10.794;2024-02-14T04:46:06;96149.25;;;2.24;82.39
10978;BME280;5542;48.272;10.794;2024-02-14T04:48:34;96155.72;;;2.28;82.31
10978;BME280;5542;48.272;10.794;2024-02-14T04:51:01;96157.34;;;2.29;82.31
10978;BME280;5542;48.272;10.794;2024-02-14T04:53:27;96148.56;;;2.30;82.09
10978;BME280;5542;48.272;10.794;2024-02-14T04:55:54;96147.91;;;2.36;81.65
10978;BME280;5542;48.272;10.794;2024-02-14T04:58:22;96150.34;;;2.38;81.83
10978;BME280;5542;48.272;10.794;2024-02-14T05:00:49;96150.84;;;2.33;82.33
10978;BME280;5542;48.272;10.794;2024-02-14T05:03:16;96145.47;;;2.43;81.85
10978;BME280;5542;48.272;10.794;2024-02-14T05:05:42;96140.09;;;2.44;81.74
10978;BME280;5542;48.272;10.794;2024-02-14T05:08:09;96138.81;;;2.40;81.84
10978;BME280;5542;48.272;10.794;2024-02-14T05:10:36;96149.97;;;2.57;81.31
10978;BME280;5542;48.272;10.794;2024-02-14T05:13:03;96150.13;;;2.55;80.90
10978;BME280;5542;48.272;10.794;2024-02-14T05:15:31;96142.38;;;2.47;81.50
10978;BME280;5542;48.272;10.794;2024-02-14T05:18:00;96150.13;;;2.55;81.23
10978;BME280;5542;48.272;10.794;2024-02-14T05:20:27;96152.69;;;2.64;81.33
10978;BME280;5542;48.272;10.794;2024-02-14T05:22:53;96156.88;;;2.73;80.64
10978;BME280;5542;48.272;10.794;2024-02-14T05:25:20;96157.06;;;2.71;80.30
10978;BME280;5542;48.272;10.794;2024-02-14T05:27:47;96156.38;;;2.77;80.10
10978;BME280;5542;48.272;10.794;2024-02-14T05:30:14;96145.19;;;2.77;80.37
10978;BME280;5542;48.272;10.794;2024-02-14T05:32:42;96150.50;;;2.83;80.03
10978;BME280;5542;48.272;10.794;2024-02-14T05:35:09;96150.00;;;2.80;79.77
10978;BME280;5542;48.272;10.794;2024-02-14T05:37:35;96153.16;;;2.75;80.47
10978;BME280;5542;48.272;10.794;2024-02-14T05:40:04;96150.16;;;2.87;80.25
10978;BME280;5542;48.272;10.794;2024-02-14T05:42:31;96163.34;;;2.85;80.45
10978;BME280;5542;48.272;10.794;2024-02-14T05:44:59;96160.53;;;2.95;80.18
10978;BME280;5542;48.272;10.794;2024-02-14T05:47:29;96159.19;;;2.99;79.91
10978;BME280;5542;48.272;10.794;2024-02-14T05:49:58;96158.38;;;2.98;80.23
10978;BME280;5542;48.272;10.794;2024-02-14T05:52:24;96162.91;;;3.04;80.41
10978;BME280;5542;48.272;10.794;2024-02-14T05:54:51;96165.91;;;3.16;79.66
10978;BME280;5542;48.272;10.794;2024-02-14T05:57:17;96167.25;;;3.12;79.76
10978;BME280;5542;48.272;10.794;2024-02-14T05:59:44;96150.00;;;3.19;79.43
10978;BME280;5542;48.272;10.794;2024-02-14T06:02:10;96147.97;;;3.29;79.07
10978;BME280;5542;48.272;10.794;2024-02-14T06:04:37;96149.41;;;3.32;79.05
10978;BME280;5542;48.272;10.794;2024-02-14T06:07:05;96154.94;;;3.37;79.11
10978;BME280;5542;48.272;10.794;2024-02-14T06:09:33;96155.03;;;3.44;78.84
10978;BME280;5542;48.272;10.794;2024-02-14T06:12:00;96153.56;;;3.41;78.04
10978;BME280;5542;48.272;10.794;2024-02-14T06:14:26;96146.59;;;3.42;77.59
10978;BME280;5542;48.272;10.794;2024-02-14T06:16:54;96141.28;;;3.35;78.09
10978;BME280;5542;48.272;10.794;2024-02-14T06:19:21;96152.88;;;3.24;78.79
10978;BME280;5542;48.272;10.794;2024-02-14T06:21:47;96155.50;;;3.24;78.95
10978;BME280;5542;48.272;10.794;2024-02-14T06:24:15;96147.78;;;3.31;78.60
10978;BME280;5542;48.272;10.794;2024-02-14T06:26:44;96165.78;;;3.41;78.02
10978;BME280;5542;48.272;10.794;2024-02-14T06:29:10;96168.78;;;3.29;78.70
10978;BME280;5542;48.272;10.794;2024-02-14T06:31:37;96174.50;;;3.25;78.86
10978;BME280;5542;48.272;10.794;2024-02-14T06:34:04;96186.16;;;3.29;79.28
10978;BME280;5542;48.272;10.794;2024-02-14T06:36:32;96193.38;;;3.42;78.76
10978;BME280;5542;48.272;10.794;2024-02-14T06:38:59;96190.13;;;3.48;78.56
10978;BME280;5542;48.272;10.794;2024-02-14T06:41:27;96188.91;;;3.81;76.52
10978;BME280;5542;48.272;10.794;2024-02-14T06:43:55;96191.53;;;4.19;74.24
10978;BME280;5542;48.272;10.794;2024-02-14T06:46:22;96196.53;;;4.21;74.55
10978;BME280;5542;48.272;10.794;2024-02-14T06:48:48;96193.69;;;4.30;74.10
10978;BME280;5542;48.272;10.794;2024-02-14T06:51:15;96196.16;;;4.47;73.07
10978;BME280;5542;48.272;10.794;2024-02-14T06:53:41;96198.75;;;4.61;71.76
10978;BME280;5542;48.272;10.794;2024-02-14T06:56:08;96194.88;;;4.72;71.51
10978;BME280;5542;48.272;10.794;2024-02-14T06:58:36;96197.94;;;4.76;70.79
10978;BME280;5542;48.272;10.794;2024-02-14T07:01:03;96199.56;;;4.77;71.16
10978;BME280;5542;48.272;10.794;2024-02-14T07:03:30;96205.03;;;4.82;71.07
10978;BME280;5542;48.272;10.794;2024-02-14T07:05:56;96206.03;;;4.96;69.94
10978;BME280;5542;48.272;10.794;2024-02-14T07:08:23;96203.06;;;4.99;69.68
10978;BME280;5542;48.272;10.794;2024-02-14T07:10:52;96196.06;;;4.99;70.40
10978;BME280;5542;48.272;10.794;2024-02-14T07:13:19;96203.22;;;4.97;71.04
10978;BME280;5542;48.272;10.794;2024-02-14T07:15:47;96202.25;;;5.13;70.08
10978;BME280;5542;48.272;10.794;2024-02-14T07:18:13;96198.00;;;5.12;69.50
10978;BME280;5542;48.272;10.794;2024-02-14T07:20:40;96196.09;;;5.21;68.36
10978;BME280;5542;48.272;10.794;2024-02-14T07:23:07;96203.38;;;5.25;68.16
10978;BME280;5542;48.272;10.794;2024-02-14T07:25:33;96199.16;;;5.24;68.14
10978;BME280;5542;48.272;10.794;2024-02-14T07:28:00;96203.28;;;5.33;67.90
10978;BME280;5542;48.272;10.794;2024-02-14T07:30:26;96203.06;;;5.35;68.18
10978;BME280;5542;48.272;10.794;2024-02-14T07:32:54;96200.16;;;5.45;66.97
10978;BME280;5542;48.272;10.794;2024-02-14T07:35:21;96205.84;;;5.48;66.62
10978;BME280;5542;48.272;10.794;2024-02-14T07:37:48;96199.06;;;5.54;66.90
10978;BME280;5542;48.272;10.794;2024-02-14T07:40:15;96200.56;;;5.63;65.80
10978;BME280;5542;48.272;10.794;2024-02-14T07:42:41;96199.97;;;5.61;65.52
10978;BME280;5542;48.272;10.794;2024-02-14T07:45:09;96202.69;;;5.74;64.76
10978;BME280;5542;48.272;10.794;2024-02-14T07:47:35;96211.66;;;5.65;65.78
10978;BME280;5542;48.272;10.794;2024-02-14T07:50:04;96209.38;;;5.83;64.54
10978;BME280;5542;48.272;10.794;2024-02-14T07:52:31;96204.63;;;5.87;64.00
10978;BME280;5542;48.272;10.794;2024-02-14T07:54:57;96210.00;;;6.00;63.06
10978;BME280;5542;48.272;10.794;2024-02-14T07:57:25;96213.22;;;6.02;63.16
10978;BME280;5542;48.272;10.794;2024-02-14T07:59:52;96216.19;;;6.21;63.86
10978;BME280;5542;48.272;10.794;2024-02-14T08:02:20;96215.81;;;6.24;63.34
10978;BME280;5542;48.272;10.794;2024-02-14T08:04:46;96208.22;;;6.29;63.41
10978;BME280;5542;48.272;10.794;2024-02-14T08:07:14;96215.72;;;6.38;63.25
10978;BME280;5542;48.272;10.794;2024-02-14T08:09:41;96222.78;;;6.45;62.73
10978;BME280;5542;48.272;10.794;2024-02-14T08:12:07;96219.50;;;6.36;63.02
10978;BME280;5542;48.272;10.794;2024-02-14T08:14:34;96223.22;;;6.48;63.12
10978;BME280;5542;48.272;10.794;2024-02-14T08:17:01;96218.47;;;6.58;62.66
10978;BME280;5542;48.272;10.794;2024-02-14T08:19:28;96206.94;;;6.74;62.00
10978;BME280;5542;48.272;10.794;2024-02-14T08:21:55;96209.00;;;6.85;61.15
10978;BME280;5542;48.272;10.794;2024-02-14T08:24:26;96201.00;;;6.93;61.29
10978;BME280;5542;48.272;10.794;2024-02-14T08:26:52;96202.50;;;7.16;60.91
10978;BME280;5542;48.272;10.794;2024-02-14T08:29:20;96196.19;;;7.52;59.78
10978;BME280;5542;48.272;10.794;2024-02-14T08:31:46;96196.84;;;7.67;59.45
10978;BME280;5542;48.272;10.794;2024-02-14T08:34:14;96199.84;;;7.57;59.31
10978;BME280;5542;48.272;10.794;2024-02-14T08:36:40;96204.09;;;7.65;59.31
10978;BME280;5542;48.272;10.794;2024-02-14T08:39:07;96197.22;;;7.64;58.45
10978;BME280;5542;48.272;10.794;2024-02-14T08:41:36;96194.81;;;7.69;58.31
10978;BME280;5542;48.272;10.794;2024-02-14T08:44:03;96197.22;;;7.64;59.33
10978;BME280;5542;48.272;10.794;2024-02-14T08:46:30;96201.91;;;7.75;59.50
10978;BME280;5542;48.272;10.794;2024-02-14T08:48:59;96194.25;;;7.80;58.40
10978;BME280;5542;48.272;10.794;2024-02-14T08:51:27;96200.06;;;7.82;59.40
10978;BME280;5542;48.272;10.794;2024-02-14T08:53:53;96202.13;;;8.07;60.45
10978;BME280;5542;48.272;10.794;2024-02-14T08:56:22;96203.94;;;7.93;60.42
10978;BME280;5542;48.272;10.794;2024-02-14T08:58:50;96198.09;;;7.98;59.31
10978;BME280;5542;48.272;10.794;2024-02-14T09:01:17;96198.47;;;7.88;60.43
10978;BME280;5542;48.272;10.794;2024-02-14T09:03:44;96198.69;;;8.00;59.40
10978;BME280;5542;48.272;10.794;2024-02-14T09:06:13;96201.34;;;8.13;59.06
10978;BME280;5542;48.272;10.794;2024-02-14T09:08:40;96193.28;;;8.14;58.28
10978;BME280;5542;48.272;10.794;2024-02-14T09:11:07;96190.28;;;8.37;58.47
10978;BME280;5542;48.272;10.794;2024-02-14T09:13:34;96174.72;;;8.69;58.51
10978;BME280;5542;48.272;10.794;2024-02-14T09:16:02;96163.25;;;9.15;56.17
10978;BME280;5542;48.272;10.794;2024-02-14T09:18:30;96170.63;;;9.38;56.93
10978;BME280;5542;48.272;10.794;2024-02-14T09:20:57;96174.28;;;9.68;60.22
10978;BME280;5542;48.272;10.794;2024-02-14T09:23:24;96171.66;;;10.00;55.53
10978;BME280;5542;48.272;10.794;2024-02-14T09:25:50;96182.03;;;10.20;56.53
10978;BME280;5542;48.272;10.794;2024-02-14T09:28:17;96180.84;;;10.16;55.49
10978;BME280;5542;48.272;10.794;2024-02-14T09:30:44;96178.41;;;9.89;57.97
10978;BME280;5542;48.272;10.794;2024-02-14T09:33:12;96198.13;;;9.73;59.38
10978;BME280;5542;48.272;10.794;2024-02-14T09:35:38;96197.75;;;9.63;59.47
10978;BME280;5542;48.272;10.794;2024-02-14T09:38:09;96203.09;;;9.88;57.97
10978;BME280;5542;48.272;10.794;2024-02-14T09:40:36;96199.56;;;9.69;58.16
10978;BME280;5542;48.272;10.794;2024-02-14T09:43:05;96204.25;;;9.61;58.72
10978;BME280;5542;48.272;10.794;2024-02-14T09:45:35;96191.06;;;9.67;54.86
10978;BME280;5542;48.272;10.794;2024-02-14T09:48:03;96199.41;;;9.58;56.17
10978;BME280;5542;48.272;10.794;2024-02-14T09:50:32;96187.06;;;9.65;54.47
10978;BME280;5542;48.272;10.794;2024-02-14T09:52:59;96182.16;;;9.68;54.89
10978;BME280;5542;48.272;10.794;2024-02-14T09:55:27;96178.00;;;9.92;55.18
10978;BME280;5542;48.272;10.794;2024-02-14T09:57:54;96183.59;;;10.03;53.66
10978;BME280;5542;48.272;10.794;2024-02-14T10:00:22;96183.06;;;9.87;52.63
10978;BME280;5542;48.272;10.794;2024-02-14T10:02:49;96180.44;;;9.87;52.73
10978;BME280;5542;48.272;10.794;2024-02-14T10:05:16;96189.97;;;9.82;52.89
10978;BME280;5542;48.272;10.794;2024-02-14T10:07:44;96186.47;;;9.94;52.25
10978;BME280;5542;48.272;10.794;2024-02-14T10:10:12;96187.09;;;9.90;53.27
10978;BME280;5542;48.272;10.794;2024-02-14T10:12:39;96200.63;;;9.93;53.10
10978;BME280;5542;48.272;10.794;2024-02-14T10:15:07;96196.13;;;10.00;53.94
10978;BME280;5542;48.272;10.794;2024-02-14T10:17:34;96195.47;;;10.05;52.01
10978;BME280;5542;48.272;10.794;2024-02-14T10:20:02;96188.94;;;10.14;52.31
10978;BME280;5542;48.272;10.794;2024-02-14T10:22:34;96188.06;;;9.95;53.17
10978;BME280;5542;48.272;10.794;2024-02-14T10:25:02;96191.47;;;10.03;53.33
10978;BME280;5542;48.272;10.794;2024-02-14T10:27:29;96188.53;;;10.17;53.04
10978;BME280;5542;48.272;10.794;2024-02-14T10:29:57;96182.03;;;10.20;52.64
10978;BME280;5542;48.272;10.794;2024-02-14T10:32:24;96180.91;;;10.09;52.31
10978;BME280;5542;48.272;10.794;2024-02-14T10:34:51;96189.75;;;10.15;52.86
10978;BME280;5542;48.272;10.794;2024-02-14T10:37:18;96188.91;;;10.21;52.20
10978;BME280;5542;48.272;10.794;2024-02-14T10:39:47;96182.25;;;10.18;52.80
10978;BME280;5542;48.272;10.794;2024-02-14T10:42:19;96177.53;;;10.02;52.96
10978;BME280;5542;48.272;10.794;2024-02-14T10:44:45;96183.53;;;10.09;54.10
10978;BME280;5542;48.272;10.794;2024-02-14T10:47:19;96177.22;;;10.17;53.30
10978;BME280;5542;48.272;10.794;2024-02-14T10:49:48;96175.06;;;10.07;53.83
10978;BME280;5542;48.272;10.794;2024-02-14T10:52:17;96182.94;;;10.07;53.55
10978;BME280;5542;48.272;10.794;2024-02-14T10:54:49;96187.28;;;10.20;54.17
10978;BME280;5542;48.272;10.794;2024-02-14T10:57:21;96189.91;;;10.20;54.30
10978;BME280;5542;48.272;10.794;2024-02-14T10:59:48;96187.72;;;10.17;54.47
10978;BME280;5542;48.272;10.794;2024-02-14T11:02:15;96186.06;;;10.22;54.24
10978;BME280;5542;48.272;10.794;2024-02-14T11:04:42;96179.06;;;10.41;52.74
10978;BME280;5542;48.272;10.794;2024-02-14T11:07:10;96175.66;;;10.59;51.86
10978;BME280;5542;48.272;10.794;2024-02-14T11:09:39;96176.16;;;10.49;52.50
10978;BME280;5542;48.272;10.794;2024-02-14T11:12:07;96176.09;;;10.56;52.37
10978;BME280;5542;48.272;10.794;2024-02-14T11:14:36;96170.16;;;10.42;52.80
10978;BME280;5542;48.272;10.794;2024-02-14T11:17:04;96164.28;;;10.65;52.31
10978;BME280;5542;48.272;10.794;2024-02-14T11:19:34;96158.94;;;10.72;51.99
10978;BME280;5542;48.272;10.794;2024-02-14T11:22:10;96166.53;;;10.80;51.29
10978;BME280;5542;48.272;10.794;2024-02-14T11:24:37;96156.41;;;10.84;52.11
10978;BME280;5542;48.272;10.794;2024-02-14T11:27:09;96157.44;;;10.83;51.88
10978;BME280;5542;48.272;10.794;2024-02-14T11:29:40;96150.91;;;11.03;51.23
10978;BME280;5542;48.272;10.794;2024-02-14T11:32:07;96158.19;;;11.20;50.45
10978;BME280;5542;48.272;10.794;2024-02-14T11:34:35;96157.63;;;11.18;51.34
10978;BME280;5542;48.272;10.794;2024-02-14T11:37:02;96163.97;;;11.10;51.63
10978;BME280;5542;48.272;10.794;2024-02-14T11:39:29;96158.16;;;11.08;51.91
10978;BME280;5542;48.272;10.794;2024-02-14T11:41:57;96161.81;;;11.07;51.88
10978;BME280;5542;48.272;10.794;2024-02-14T11:44:24;96164.22;;;11.09;52.53
10978;BME280;5542;48.272;10.794;2024-02-14T11:46:53;96158.50;;;11.12;52.59
10978;BME280;5542;48.272;10.794;2024-02-14T11:49:20;96160.25;;;11.18;52.44
10978;BME280;5542;48.272;10.794;2024-02-14T11:51:48;96158.66;;;11.17;52.45
10978;BME280;5542;48.272;10.794;2024-02-14T11:54:14;96162.59;;;11.26;53.60
10978;BME280;5542;48.272;10.794;2024-02-14T11:56:43;96165.56;;;11.29;55.49
10978;BME280;5542;48.272;10.794;2024-02-14T11:59:10;96163.59;;;11.25;55.22
10978;BME280;5542;48.272;10.794;2024-02-14T12:01:37;96165.56;;;11.29;55.72
10978;BME280;5542;48.272;10.794;2024-02-14T12:04:07;96172.31;;;11.25;55.77
10978;BME280;5542;48.272;10.794;2024-02-14T12:06:35;96160.66;;;11.33;57.19
10978;BME280;5542;48.272;10.794;2024-02-14T12:09:03;96168.88;;;11.25;57.79
10978;BME280;5542;48.272;10.794;2024-02-14T12:11:31;96156.97;;;11.22;58.88
10978;BME280;5542;48.272;10.794;2024-02-14T12:14:01;96150.81;;;11.28;58.40
10978;BME280;5542;48.272;10.794;2024-02-14T12:16:27;96151.75;;;11.34;58.39
10978;BME280;5542;48.272;10.794;2024-02-14T12:19:03;96155.09;;;11.41;59.44
10978;BME280;5542;48.272;10.794;2024-02-14T12:21:35;96155.06;;;11.60;58.81
10978;BME280;5542;48.272;10.794;2024-02-14T12:24:02;96150.78;;;11.47;58.73
10978;BME280;5542;48.272;10.794;2024-02-14T12:26:30;96159.28;;;11.49;59.40
10978;BME280;5542;48.272;10.794;2024-02-14T12:28:57;96150.41;;;11.43;58.44
10978;BME280;5542;48.272;10.794;2024-02-14T12:31:24;96148.97;;;11.29;59.27
10978;BME280;5542;48.272;10.794;2024-02-14T12:33:50;96144.31;;;11.31;58.84
10978;BME280;5542;48.272;10.794;2024-02-14T12:36:19;96146.31;;;11.47;58.09
10978;BME280;5542;48.272;10.794;2024-02-14T12:38:47;96152.59;;;11.46;57.41
10978;BME280;5542;48.272;10.794;2024-02-14T12:41:14;96161.13;;;11.60;57.39
10978;BME280;5542;48.272;10.794;2024-02-14T12:43:41;96160.63;;;11.51;57.79
10978;BME280;5542;48.272;10.794;2024-02-14T12:46:08;96165.00;;;11.58;57.06
10978;BME280;5542;48.272;10.794;2024-02-14T12:48:34;96151.09;;;11.69;57.62
10978;BME280;5542;48.272;10.794;2024-02-14T12:51:01;96163.91;;;11.77;56.45
10978;BME280;5542;48.272;10.794;2024-02-14T12:53:27;96155.41;;;11.93;56.03
10978;BME280;5542;48.272;10.794;2024-02-14T12:55:56;96156.81;;;12.08;55.96
10978;BME280;5542;48.272;10.794;2024-02-14T12:58:22;96164.38;;;11.92;55.79
10978;BME280;5542;48.272;10.794;2024-02-14T13:00:49;96159.66;;;11.94;55.54
10978;BME280;5542;48.272;10.794;2024-02-14T13:03:16;96161.59;;;11.87;56.42
10978;BME280;5542;48.272;10.794;2024-02-14T13:05:43;96161.84;;;11.97;55.78
10978;BME280;5542;48.272;10.794;2024-02-14T13:08:10;96167.00;;;12.04;56.89